Time;durP1;ratioP1;P1;durP2;ratioP2;P2;SDS_P1;SDS_P2;PMS_P1;PMS_P2;Temp;Humidity;BMP_temperature;BMP_pressure;BME280_temperature;BME280_humidity;BME280_pressure;Samples;Min_cycle;Max_cycle;Signal;HPM_P1;HPM_P2
2023/05/12 00:00:03;;;;;;;2.33;1.90;;;;;;;9.14;55.33;93709.25;523965;28;957;-58
2023/05/12 00:00:19;;;;;;;2.42;1.80;;;;;;;9.17;55.09;93712.97;523967;28;910;-58
2023/05/12 00:00:35;;;;;;;3.42;1.90;;;;;;;9.19;54.85;93710.44;523996;28;816;-58
2023/05/12 00:00:50;;;;;;;2.97;1.70;;;;;;;9.21;54.88;93712.63;523999;28;901;-58
2023/05/12 00:01:06;;;;;;;2.22;1.83;;;;;;;9.21;55.07;93710.63;523965;28;833;-58
2023/05/12 00:01:21;;;;;;;2.38;1.92;;;;;;;9.23;54.64;93710.84;524051;28;855;-58
2023/05/12 00:01:37;;;;;;;2.67;1.90;;;;;;;9.27;54.88;93708.50;523942;28;861;-58
2023/05/12 00:01:52;;;;;;;3.10;1.90;;;;;;;9.32;54.92;93712.41;523978;28;1193;-58
2023/05/12 00:02:07;;;;;;;3.00;2.10;;;;;;;9.33;54.64;93714.63;523777;28;856;-58
2023/05/12 00:02:23;;;;;;;3.00;2.17;;;;;;;9.35;54.40;93711.34;523838;28;870;-58
2023/05/12 00:02:38;;;;;;;2.90;1.88;;;;;;;9.38;54.58;93715.78;523814;28;832;-59
2023/05/12 00:02:54;;;;;;;1.83;1.63;;;;;;;9.40;54.38;93707.72;523806;28;793;-58
2023/05/12 00:03:09;;;;;;;1.70;1.60;;;;;;;9.42;54.31;93710.69;523808;28;840;-58
2023/05/12 00:03:25;;;;;;;2.13;1.85;;;;;;;9.41;54.01;93715.47;523860;28;856;-58
2023/05/12 00:03:40;;;;;;;2.87;2.07;;;;;;;9.39;53.91;93714.50;523741;28;1622;-58
2023/05/12 00:03:56;;;;;;;3.55;2.20;;;;;;;9.33;53.57;93713.91;523839;28;875;-58
2023/05/12 00:04:11;;;;;;;3.07;1.93;;;;;;;9.32;53.81;93715.16;523948;28;832;-58
2023/05/12 00:04:26;;;;;;;2.88;1.77;;;;;;;9.33;53.63;93711.13;523998;28;776;-58
2023/05/12 00:04:42;;;;;;;3.20;2.00;;;;;;;9.29;54.02;93707.97;523948;28;824;-58
2023/05/12 00:04:57;;;;;;;3.87;2.10;;;;;;;9.23;54.36;93713.59;523911;28;879;-58
2023/05/12 00:05:12;;;;;;;2.90;2.00;;;;;;;9.16;54.75;93705.97;524037;28;776;-58
2023/05/12 00:05:28;;;;;;;2.53;1.87;;;;;;;9.10;54.71;93706.09;524045;28;801;-58
2023/05/12 00:05:44;;;;;;;3.50;1.77;;;;;;;9.06;54.02;93713.94;523924;28;877;-58
2023/05/12 00:06:02;;;;;;;3.23;1.93;;;;;;;9.04;54.29;93705.47;524028;28;788;-58
2023/05/12 00:06:18;;;;;;;2.10;1.83;;;;;;;9.07;54.33;93707.16;523864;28;903;-58
2023/05/12 00:06:33;;;;;;;2.70;1.80;;;;;;;9.11;54.37;93713.09;523931;28;1968;-58
2023/05/12 00:06:49;;;;;;;2.60;1.85;;;;;;;9.15;54.37;93719.03;523762;28;932;-58
2023/05/12 00:07:05;;;;;;;2.20;1.70;;;;;;;9.16;54.24;93705.97;523919;28;867;-58
2023/05/12 00:07:21;;;;;;;2.20;1.65;;;;;;;9.17;54.26;93712.97;523970;28;816;-58
2023/05/12 00:07:37;;;;;;;1.90;1.70;;;;;;;9.18;54.00;93709.69;524003;28;777;-58
2023/05/12 00:07:52;;;;;;;2.57;1.80;;;;;;;9.11;53.91;93709.59;524007;28;864;-58
2023/05/12 00:08:07;;;;;;;2.43;1.80;;;;;;;9.06;53.84;93707.69;523933;28;906;-57
2023/05/12 00:08:23;;;;;;;3.22;2.10;;;;;;;9.04;53.89;93708.25;523960;28;820;-58
2023/05/12 00:08:38;;;;;;;3.80;2.10;;;;;;;9.08;53.62;93711.41;523977;28;816;-57
2023/05/12 00:08:53;;;;;;;2.13;1.90;;;;;;;9.09;53.56;93706.63;523952;28;780;-58
2023/05/12 00:09:09;;;;;;;1.80;1.70;;;;;;;9.11;53.69;93713.09;523970;28;1490;-58
2023/05/12 00:09:24;;;;;;;2.23;1.80;;;;;;;9.11;53.71;93704.84;523941;28;904;-58
2023/05/12 00:09:42;;;;;;;3.22;1.90;;;;;;;9.14;53.65;93714.78;523918;28;922;-58
2023/05/12 00:09:58;;;;;;;3.17;1.88;;;;;;;9.14;53.66;93712.03;523897;28;903;-58
2023/05/12 00:10:13;;;;;;;2.83;1.70;;;;;;;9.11;53.65;93710.34;523957;28;922;-58
2023/05/12 00:10:28;;;;;;;2.43;1.53;;;;;;;9.07;53.88;93711.94;523943;28;903;-58
2023/05/12 00:10:44;;;;;;;2.40;1.73;;;;;;;9.07;53.77;93706.44;523865;28;843;-58
2023/05/12 00:11:00;;;;;;;2.37;1.90;;;;;;;9.04;53.85;93711.00;523972;28;784;-58
2023/05/12 00:11:15;;;;;;;2.13;1.90;;;;;;;9.05;53.83;93711.75;524016;28;1718;-58
2023/05/12 00:11:31;;;;;;;2.30;1.90;;;;;;;9.04;53.73;93704.75;523993;28;961;-58
2023/05/12 00:11:47;;;;;;;2.50;1.80;;;;;;;9.05;53.81;93704.19;523917;28;911;-58
2023/05/12 00:12:02;;;;;;;3.33;1.88;;;;;;;8.93;54.19;93688.44;524010;28;1715;-58
2023/05/12 00:12:18;;;;;;;3.80;1.85;;;;;;;9.07;54.04;93714.69;524023;28;831;-58
2023/05/12 00:12:33;;;;;;;3.73;2.23;;;;;;;9.10;53.91;93711.59;524021;28;995;-57
2023/05/12 00:12:49;;;;;;;3.50;2.40;;;;;;;9.12;53.97;93706.31;523709;28;832;-58
2023/05/12 00:13:04;;;;;;;2.13;1.93;;;;;;;9.14;53.94;93706.50;523722;28;856;-57
2023/05/12 00:13:22;;;;;;;1.77;1.67;;;;;;;9.13;54.16;93710.56;523884;28;853;-58
2023/05/12 00:13:37;;;;;;;2.38;1.80;;;;;;;9.15;53.85;93705.25;523781;28;990;-58
2023/05/12 00:13:54;;;;;;;3.38;1.98;;;;;;;9.18;54.32;93708.22;523857;28;832;-58
2023/05/12 00:14:09;;;;;;;3.53;2.00;;;;;;;9.18;54.59;93709.69;523752;28;885;-58
2023/05/12 00:14:24;;;;;;;3.07;1.83;;;;;;;9.20;54.52;93713.94;523830;28;808;-58
2023/05/12 00:14:40;;;;;;;4.25;2.72;;;;;;;9.19;54.29;93713.19;523839;28;796;-58
2023/05/12 00:14:55;;;;;;;6.27;3.73;;;;;;;9.15;53.81;93715.53;523890;28;910;-58
2023/05/12 00:15:10;;;;;;;4.43;2.73;;;;;;;9.12;53.67;93711.81;523907;28;852;-58
2023/05/12 00:15:26;;;;;;;1.92;1.70;;;;;;;9.11;53.28;93706.84;524001;28;1113;-57
2023/05/12 00:15:41;;;;;;;2.70;1.70;;;;;;;9.10;53.15;93702.59;523938;28;867;-58
2023/05/12 00:15:57;;;;;;;2.65;1.77;;;;;;;9.10;53.36;93710.88;523984;28;889;-58
2023/05/12 00:16:14;;;;;;;2.15;1.73;;;;;;;9.12;53.27;93708.31;524034;28;855;-58
2023/05/12 00:16:30;;;;;;;2.00;1.70;;;;;;;9.13;53.57;93707.81;524003;28;849;-58
2023/05/12 00:16:50;;;;;;;2.30;1.80;;;;;;;9.15;53.39;93710.00;524747;28;1256;-58
2023/05/12 00:17:05;;;;;;;2.15;1.70;;;;;;;9.18;53.24;93710.97;525953;28;1088;-57
2023/05/12 00:17:21;;;;;;;3.00;1.90;;;;;;;9.18;53.24;93708.22;526091;28;1144;-58
2023/05/12 00:17:36;;;;;;;3.77;2.00;;;;;;;9.18;53.64;93708.97;526075;28;749;-58
2023/05/12 00:17:52;;;;;;;4.53;1.90;;;;;;;9.14;54.27;93709.25;526070;28;824;-57
2023/05/12 00:18:07;;;;;;;3.78;2.08;;;;;;;9.03;54.42;93706.03;526156;28;764;-58
2023/05/12 00:18:22;;;;;;;3.30;2.10;;;;;;;9.03;54.69;93708.78;526162;28;780;-58
2023/05/12 00:18:38;;;;;;;4.00;2.00;;;;;;;8.95;54.73;93705.91;526054;28;848;-58
2023/05/12 00:18:53;;;;;;;3.65;2.10;;;;;;;8.95;54.95;93713.44;526070;28;836;-58
2023/05/12 00:19:08;;;;;;;3.10;2.30;;;;;;;8.94;54.97;93709.22;526121;28;823;-58
2023/05/12 00:19:24;;;;;;;3.60;2.55;;;;;;;8.97;54.69;93708.88;526094;28;839;-58
2023/05/12 00:19:42;;;;;;;4.40;2.70;;;;;;;8.98;54.43;93706.88;526075;28;1534;-58
2023/05/12 00:19:58;;;;;;;4.22;2.42;;;;;;;9.00;54.37;93709.84;526026;28;922;-58
2023/05/12 00:20:13;;;;;;;4.75;2.20;;;;;;;8.97;54.50;93706.13;526031;28;1019;-58
2023/05/12 00:20:28;;;;;;;5.20;2.30;;;;;;;8.93;54.68;93704.97;526117;28;773;-58
2023/05/12 00:20:44;;;;;;;3.47;2.10;;;;;;;8.91;54.57;93708.25;526050;28;837;-58
2023/05/12 00:21:00;;;;;;;2.40;2.17;;;;;;;8.91;54.88;93704.75;523934;28;1184;-58
2023/05/12 00:21:15;;;;;;;2.38;2.17;;;;;;;8.92;54.83;93700.75;523962;28;979;-58
2023/05/12 00:21:31;;;;;;;2.97;1.90;;;;;;;8.93;54.71;93705.72;524048;28;796;-58
2023/05/12 00:21:46;;;;;;;3.28;1.92;;;;;;;8.92;54.78;93709.72;523953;28;854;-58
2023/05/12 00:22:02;;;;;;;2.87;2.07;;;;;;;8.94;54.92;93709.94;523970;28;891;-58
2023/05/12 00:22:17;;;;;;;3.85;2.22;;;;;;;8.96;55.09;93710.16;524001;28;863;-58
2023/05/12 00:22:33;;;;;;;3.87;2.13;;;;;;;8.95;55.19;93714.19;524028;28;777;-58
2023/05/12 00:22:48;;;;;;;2.65;1.90;;;;;;;8.96;55.06;93709.41;523951;28;808;-58
2023/05/12 00:23:03;;;;;;;2.20;1.83;;;;;;;8.96;55.01;93712.91;523970;28;800;-58
2023/05/12 00:23:19;;;;;;;2.07;1.80;;;;;;;8.97;55.01;93706.13;524040;28;802;-58
2023/05/12 00:23:34;;;;;;;1.98;1.67;;;;;;;9.01;54.63;93700.28;523945;28;848;-58
2023/05/12 00:23:49;;;;;;;3.07;1.80;;;;;;;9.04;54.13;93708.25;523952;28;860;-58
2023/05/12 00:24:05;;;;;;;2.90;1.60;;;;;;;9.08;54.09;93710.66;523978;28;847;-58
2023/05/12 00:24:20;;;;;;;1.90;1.70;;;;;;;9.08;54.51;93711.41;523998;28;765;-58
2023/05/12 00:24:36;;;;;;;2.37;1.83;;;;;;;9.09;54.95;93712.16;523932;28;840;-58
2023/05/12 00:24:51;;;;;;;4.28;2.20;;;;;;;9.07;55.35;93709.91;524057;28;789;-58
2023/05/12 00:25:07;;;;;;;4.23;2.20;;;;;;;9.05;55.47;93701.44;523858;28;823;-58
2023/05/12 00:25:22;;;;;;;2.63;1.75;;;;;;;9.07;55.38;93706.44;524025;28;864;-58
2023/05/12 00:25:38;;;;;;;2.30;1.80;;;;;;;9.10;54.97;93708.84;523940;28;867;-58
2023/05/12 00:25:53;;;;;;;2.38;2.05;;;;;;;9.12;54.87;93709.06;523969;28;801;-58
2023/05/12 00:26:09;;;;;;;2.47;1.83;;;;;;;9.14;54.76;93706.50;523983;28;829;-58
2023/05/12 00:26:24;;;;;;;2.22;1.70;;;;;;;9.19;54.70;93715.94;523947;28;852;-58
2023/05/12 00:26:39;;;;;;;2.23;1.70;;;;;;;9.19;55.05;93713.19;523813;28;1985;-58
2023/05/12 00:26:55;;;;;;;2.20;1.83;;;;;;;9.16;54.94;93706.72;523932;28;788;-58
2023/05/12 00:27:10;;;;;;;3.20;1.77;;;;;;;9.19;54.75;93713.19;524015;28;821;-58
2023/05/12 00:27:26;;;;;;;3.57;1.70;;;;;;;9.18;54.71;93712.44;523919;28;923;-58
2023/05/12 00:27:41;;;;;;;2.20;1.80;;;;;;;9.16;54.91;93709.47;523979;28;852;-58
2023/05/12 00:27:56;;;;;;;2.53;1.90;;;;;;;9.16;55.13;93711.47;524026;28;835;-58
2023/05/12 00:28:12;;;;;;;3.63;2.20;;;;;;;9.11;55.91;93715.84;523929;28;919;-58
2023/05/12 00:28:27;;;;;;;2.97;2.10;;;;;;;9.08;55.86;93716.91;523977;28;1637;-58
2023/05/12 00:28:42;;;;;;;2.00;1.80;;;;;;;9.10;55.96;93710.88;524020;28;832;-58
2023/05/12 00:28:58;;;;;;;3.70;1.90;;;;;;;9.09;56.21;93712.91;523851;28;859;-58
2023/05/12 00:29:13;;;;;;;3.60;1.95;;;;;;;9.09;56.32;93709.41;524010;28;810;-58
2023/05/12 00:29:29;;;;;;;2.47;1.90;;;;;;;9.11;56.13;93710.34;523971;28;868;-58
2023/05/12 00:29:44;;;;;;;2.53;1.83;;;;;;;9.12;56.47;93711.81;523831;28;828;-58
2023/05/12 00:29:59;;;;;;;2.35;1.92;;;;;;;9.13;56.38;93713.31;524054;28;812;-58
2023/05/12 00:30:15;;;;;;;2.97;2.10;;;;;;;9.15;56.10;93710.75;523957;28;895;-58
2023/05/12 00:30:30;;;;;;;2.45;1.85;;;;;;;9.12;55.67;93717.31;523995;28;875;-58
2023/05/12 00:30:46;;;;;;;2.10;1.80;;;;;;;9.12;55.57;93709.06;523624;28;1014;-58
2023/05/12 00:31:02;;;;;;;2.00;1.80;;;;;;;9.09;55.42;93712.16;523941;28;1481;-58
2023/05/12 00:31:18;;;;;;;2.10;1.90;;;;;;;9.02;55.51;93712.78;523920;28;820;-58
2023/05/12 00:31:33;;;;;;;2.00;1.80;;;;;;;8.99;54.83;93719.34;524006;28;884;-58
2023/05/12 00:31:48;;;;;;;2.70;1.85;;;;;;;8.95;54.63;93714.19;523939;28;879;-57
2023/05/12 00:32:04;;;;;;;4.07;1.90;;;;;;;8.92;54.32;93715.22;523989;28;872;-58
2023/05/12 00:32:20;;;;;;;3.05;1.85;;;;;;;8.95;54.50;93714.19;524017;28;765;-58
2023/05/12 00:32:35;;;;;;;1.83;1.73;;;;;;;8.99;54.29;93713.84;523967;28;792;-58
2023/05/12 00:32:50;;;;;;;2.55;1.70;;;;;;;9.02;54.41;93715.53;523969;28;800;-58
2023/05/12 00:33:06;;;;;;;2.90;1.90;;;;;;;9.04;54.07;93715.75;523927;28;883;-58
2023/05/12 00:33:21;;;;;;;2.20;1.80;;;;;;;9.08;54.20;93722.41;523962;28;907;-58
2023/05/12 00:33:37;;;;;;;2.47;1.80;;;;;;;9.08;53.97;93707.91;524004;28;1735;-57
2023/05/12 00:33:52;;;;;;;2.40;1.70;;;;;;;9.10;53.96;93716.38;526114;28;764;-58
2023/05/12 00:34:07;;;;;;;2.75;1.80;;;;;;;9.08;53.98;93714.16;525972;28;1137;-58
2023/05/12 00:34:23;;;;;;;4.70;2.03;;;;;;;9.03;54.06;93715.00;526136;28;788;-58
2023/05/12 00:34:38;;;;;;;3.77;1.90;;;;;;;9.01;53.78;93717.56;525941;28;1345;-57
2023/05/12 00:34:54;;;;;;;2.65;1.90;;;;;;;8.99;53.88;93722.84;526021;28;757;-58
2023/05/12 00:35:09;;;;;;;2.63;1.83;;;;;;;8.95;53.63;93716.19;525989;28;1043;-58
2023/05/12 00:35:24;;;;;;;1.95;1.73;;;;;;;8.92;53.77;93714.50;526041;28;827;-58
2023/05/12 00:35:40;;;;;;;1.90;1.70;;;;;;;8.91;53.91;93715.78;526030;28;839;-57
2023/05/12 00:35:55;;;;;;;1.87;1.67;;;;;;;8.71;53.95;93689.63;526103;28;828;-58
2023/05/12 00:36:10;;;;;;;1.88;1.60;;;;;;;8.84;53.93;93710.91;526098;28;926;-57
2023/05/12 00:36:26;;;;;;;1.73;1.57;;;;;;;8.75;54.23;93717.56;526109;28;850;-57
2023/05/12 00:36:42;;;;;;;2.20;1.67;;;;;;;8.72;54.22;93712.41;526053;28;800;-58
2023/05/12 00:36:57;;;;;;;2.27;1.70;;;;;;;8.72;54.53;93718.66;525977;28;823;-58
2023/05/12 00:37:12;;;;;;;2.67;1.92;;;;;;;8.69;55.14;93716.19;524856;28;1113;-58
2023/05/12 00:37:28;;;;;;;3.47;1.80;;;;;;;8.69;55.45;93719.69;523936;28;875;-57
2023/05/12 00:37:43;;;;;;;3.50;1.73;;;;;;;8.72;55.11;93724.16;523911;28;986;-57
2023/05/12 00:37:59;;;;;;;2.72;1.83;;;;;;;8.67;56.06;93716.75;523968;28;1547;-57
2023/05/12 00:38:14;;;;;;;2.20;1.70;;;;;;;8.64;56.23;93723.28;523895;28;1569;-58
2023/05/12 00:38:29;;;;;;;1.77;1.65;;;;;;;8.65;55.51;93710.28;523997;28;785;-58
2023/05/12 00:38:45;;;;;;;1.53;1.43;;;;;;;8.64;55.05;93717.78;523865;28;2395;-58
2023/05/12 00:39:01;;;;;;;1.73;1.63;;;;;;;8.63;54.85;93713.56;523889;28;844;-57
2023/05/12 00:39:16;;;;;;;2.15;1.95;;;;;;;8.60;55.33;93722.88;523920;28;868;-57
2023/05/12 00:39:32;;;;;;;2.08;1.88;;;;;;;8.62;55.30;93719.63;524037;28;796;-57
2023/05/12 00:39:47;;;;;;;1.87;1.67;;;;;;;8.64;55.41;93720.53;523849;28;784;-58
2023/05/12 00:40:03;;;;;;;2.85;1.60;;;;;;;8.53;55.19;93707.03;523996;28;919;-57
2023/05/12 00:40:19;;;;;;;4.55;1.70;;;;;;;8.66;55.14;93715.28;523989;28;796;-57
2023/05/12 00:40:34;;;;;;;3.60;1.80;;;;;;;8.58;55.34;93708.91;523891;28;1025;-58
2023/05/12 00:40:50;;;;;;;2.25;1.83;;;;;;;8.69;54.99;93718.97;523925;28;1506;-58
2023/05/12 00:41:05;;;;;;;2.20;1.77;;;;;;;8.65;54.90;93715.78;523908;28;852;-58
2023/05/12 00:41:21;;;;;;;2.65;1.85;;;;;;;8.53;55.00;93718.03;523925;28;911;-58
2023/05/12 00:41:36;;;;;;;2.47;1.97;;;;;;;8.46;55.58;93726.16;523911;28;852;-57
2023/05/12 00:41:56;;;;;;;1.80;1.70;;;;;;;8.44;55.83;93720.44;523952;28;963;-57
2023/05/12 00:42:11;;;;;;;2.05;1.67;;;;;;;8.38;55.74;93721.28;523905;28;1002;-58
2023/05/12 00:42:27;;;;;;;2.40;1.70;;;;;;;8.35;55.68;93724.34;523929;28;868;-58
2023/05/12 00:42:42;;;;;;;3.80;1.67;;;;;;;8.31;56.25;93718.44;523947;28;841;-58
2023/05/12 00:42:57;;;;;;;5.20;1.80;;;;;;;8.23;56.57;93715.53;523829;28;880;-58
2023/05/12 00:43:13;;;;;;;3.53;1.77;;;;;;;8.21;56.81;93720.06;523944;28;922;-57
2023/05/12 00:43:28;;;;;;;1.90;1.70;;;;;;;8.10;57.68;93723.03;523944;28;851;-58
2023/05/12 00:43:44;;;;;;;3.30;1.88;;;;;;;7.93;57.88;93695.06;523933;28;788;-58
2023/05/12 00:43:59;;;;;;;4.00;2.10;;;;;;;8.17;57.61;93725.88;523938;28;911;-57
2023/05/12 00:44:15;;;;;;;2.57;1.93;;;;;;;8.22;57.49;93716.06;523903;28;1164;-57
2023/05/12 00:44:30;;;;;;;2.88;1.90;;;;;;;8.20;57.25;93719.34;523889;28;974;-57
2023/05/12 00:44:46;;;;;;;3.00;2.10;;;;;;;8.23;57.07;93723.03;523876;28;824;-57
2023/05/12 00:45:03;;;;;;;4.17;2.20;;;;;;;8.25;56.87;93721.25;523957;28;817;-57
2023/05/12 00:45:19;;;;;;;3.90;2.20;;;;;;;8.28;56.92;93720.22;523919;28;907;-58
2023/05/12 00:45:34;;;;;;;2.92;2.10;;;;;;;8.33;56.93;93724.13;523909;28;877;-57
2023/05/12 00:45:50;;;;;;;3.50;2.08;;;;;;;8.32;56.54;93719.91;523780;28;911;-57
2023/05/12 00:46:05;;;;;;;4.37;2.10;;;;;;;8.37;56.68;93724.56;523761;28;852;-58
2023/05/12 00:46:21;;;;;;;3.75;2.05;;;;;;;8.40;56.54;93718.75;523607;28;1180;-58
2023/05/12 00:46:38;;;;;;;2.37;1.90;;;;;;;8.38;56.79;93728.81;523685;28;1980;-58
2023/05/12 00:46:54;;;;;;;1.90;1.80;;;;;;;8.25;56.85;93704.00;521597;28;928;-58
2023/05/12 00:47:09;;;;;;;1.70;1.60;;;;;;;8.39;56.90;93722.03;521739;28;1688;-58
2023/05/12 00:47:24;;;;;;;2.53;1.90;;;;;;;8.37;57.16;93721.81;521743;28;765;-58
2023/05/12 00:47:40;;;;;;;2.88;2.08;;;;;;;8.38;57.37;93724.03;522217;28;935;-58
2023/05/12 00:47:56;;;;;;;2.30;2.03;;;;;;;8.30;58.55;93725.94;523758;28;938;-58
2023/05/12 00:48:11;;;;;;;2.35;2.10;;;;;;;8.22;58.62;93721.56;523754;28;1186;-58
2023/05/12 00:48:26;;;;;;;2.63;1.83;;;;;;;8.23;58.54;93714.78;523752;28;856;-58
2023/05/12 00:48:43;;;;;;;2.38;1.77;;;;;;;8.24;58.24;93724.53;523785;28;880;-58
2023/05/12 00:48:58;;;;;;;2.20;2.00;;;;;;;8.23;57.99;93723.78;523875;28;828;-58
2023/05/12 00:49:14;;;;;;;2.50;2.10;;;;;;;8.25;58.34;93717.75;523991;28;867;-58
2023/05/12 00:49:29;;;;;;;2.92;2.00;;;;;;;8.27;58.24;93726.25;523907;28;840;-58
2023/05/12 00:49:45;;;;;;;2.58;2.03;;;;;;;8.17;58.15;93712.13;523790;28;781;-58
2023/05/12 00:50:02;;;;;;;2.47;1.87;;;;;;;8.31;58.37;93726.69;523750;28;836;-58
2023/05/12 00:50:17;;;;;;;3.33;1.60;;;;;;;8.32;58.31;93726.16;523732;28;868;-58
2023/05/12 00:50:33;;;;;;;4.18;1.90;;;;;;;8.38;58.10;93718.53;523834;28;818;-58
2023/05/12 00:50:48;;;;;;;3.67;2.00;;;;;;;8.42;58.12;93729.22;523718;28;961;-58
2023/05/12 00:51:05;;;;;;;3.83;2.35;;;;;;;8.45;57.97;93724.66;523685;28;1259;-58
2023/05/12 00:51:20;;;;;;;3.40;2.45;;;;;;;8.48;57.97;93724.38;523785;28;1537;-58
2023/05/12 00:51:36;;;;;;;3.27;2.27;;;;;;;8.47;58.08;93722.88;523748;28;857;-58
2023/05/12 00:51:53;;;;;;;3.97;2.40;;;;;;;8.50;57.70;93726.59;523909;28;919;-58
2023/05/12 00:52:09;;;;;;;3.25;2.10;;;;;;;8.54;57.79;93730.50;523970;28;834;-58
2023/05/12 00:52:24;;;;;;;2.53;1.85;;;;;;;8.55;57.70;93723.75;523937;28;906;-58
2023/05/12 00:52:40;;;;;;;2.53;1.90;;;;;;;8.55;57.82;93726.50;523693;28;1037;-58
2023/05/12 00:52:55;;;;;;;3.00;2.00;;;;;;;8.55;57.90;93729.25;523781;28;838;-58
2023/05/12 00:53:11;;;;;;;2.20;1.83;;;;;;;8.54;57.84;93725.00;523798;28;893;-58
2023/05/12 00:53:27;;;;;;;2.00;1.80;;;;;;;8.56;57.49;93725.22;523734;28;962;-57
2023/05/12 00:53:42;;;;;;;2.70;2.00;;;;;;;8.60;57.47;93733.88;521755;28;915;-57
2023/05/12 00:53:58;;;;;;;2.43;1.90;;;;;;;8.58;56.93;93727.41;521724;28;836;-56
2023/05/12 00:54:13;;;;;;;3.63;1.60;;;;;;;8.59;56.62;93726.91;522166;28;826;-57
2023/05/12 00:54:29;;;;;;;3.67;1.60;;;;;;;8.62;56.87;93720.34;522522;28;880;-58
2023/05/12 00:54:44;;;;;;;1.90;1.70;;;;;;;8.54;57.05;93724.25;524111;28;815;-58
2023/05/12 00:55:01;;;;;;;2.33;1.83;;;;;;;8.39;57.02;93709.00;521990;28;796;-58
2023/05/12 00:55:16;;;;;;;3.50;2.00;;;;;;;8.39;56.92;93724.78;522134;28;814;-58
2023/05/12 00:55:32;;;;;;;3.83;2.00;;;;;;;8.29;57.06;93721.69;522579;28;855;-58
2023/05/12 00:55:47;;;;;;;2.60;1.90;;;;;;;8.29;57.11;93718.94;524146;28;836;-57
2023/05/12 00:56:03;;;;;;;1.90;1.70;;;;;;;8.33;57.20;93724.13;524161;28;871;-58
2023/05/12 00:56:18;;;;;;;1.85;1.75;;;;;;;8.38;57.35;93720.56;524167;28;828;-58
2023/05/12 00:56:38;;;;;;;2.27;2.00;;;;;;;8.42;57.08;93720.97;524114;28;951;-57
2023/05/12 00:56:53;;;;;;;3.95;2.00;;;;;;;8.38;57.62;93724.03;524174;28;995;-58
2023/05/12 00:57:10;;;;;;;3.90;2.07;;;;;;;8.38;57.87;93724.03;524268;28;930;-57
2023/05/12 00:57:26;;;;;;;3.83;2.10;;;;;;;8.26;58.14;93705.50;524072;28;994;-57
2023/05/12 00:57:42;;;;;;;3.90;2.20;;;;;;;8.36;58.66;93721.06;524090;28;871;-58
2023/05/12 00:57:58;;;;;;;2.20;2.00;;;;;;;8.35;58.76;93727.84;524065;28;1224;-58
2023/05/12 00:58:14;;;;;;;2.00;1.83;;;;;;;8.36;58.71;93723.06;524171;28;843;-58
2023/05/12 00:58:29;;;;;;;2.28;2.08;;;;;;;8.33;58.05;93727.63;524142;28;827;-58
2023/05/12 00:58:45;;;;;;;3.20;2.00;;;;;;;8.23;57.93;93712.03;524077;28;833;-58
2023/05/12 00:59:00;;;;;;;3.92;1.90;;;;;;;8.30;58.07;93722.44;524082;28;821;-58
2023/05/12 00:59:16;;;;;;;3.10;1.97;;;;;;;8.33;58.21;93727.63;524244;28;792;-58
2023/05/12 00:59:31;;;;;;;2.45;1.90;;;;;;;8.33;57.85;93716.63;524259;28;845;-58
2023/05/12 00:59:47;;;;;;;2.37;1.90;;;;;;;8.35;58.01;93716.84;524250;28;882;-57
2023/05/12 01:00:03;;;;;;;2.25;1.98;;;;;;;8.39;57.97;93724.78;524289;28;882;-58
2023/05/12 01:00:19;;;;;;;1.98;1.80;;;;;;;8.47;57.77;93724.91;524339;28;903;-58
2023/05/12 01:00:34;;;;;;;2.53;1.83;;;;;;;8.52;57.62;93729.53;524331;28;776;-57
2023/05/12 01:00:49;;;;;;;3.03;1.80;;;;;;;8.47;57.89;93722.16;524394;28;844;-58
2023/05/12 01:01:05;;;;;;;2.33;1.70;;;;;;;8.48;57.63;93723.63;524249;28;1037;-58
2023/05/12 01:01:20;;;;;;;2.67;1.92;;;;;;;8.52;57.77;93729.53;524360;28;784;-58
2023/05/12 01:01:36;;;;;;;2.97;2.23;;;;;;;8.53;57.66;93729.03;524286;28;950;-58
2023/05/12 01:01:52;;;;;;;2.58;2.20;;;;;;;8.56;57.38;93727.97;524159;28;913;-58
2023/05/12 01:02:07;;;;;;;2.93;2.10;;;;;;;8.53;57.56;93725.53;524123;28;871;-58
2023/05/12 01:02:24;;;;;;;3.50;1.98;;;;;;;8.50;57.93;93724.56;524201;28;812;-58
2023/05/12 01:02:39;;;;;;;3.20;1.80;;;;;;;8.48;57.87;93731.88;524040;28;848;-58
2023/05/12 01:02:58;;;;;;;2.00;1.80;;;;;;;8.45;58.01;93724.66;524172;28;824;-58
2023/05/12 01:03:13;;;;;;;3.20;2.08;;;;;;;8.38;57.90;93720.56;524143;28;875;-58
2023/05/12 01:03:29;;;;;;;7.07;2.25;;;;;;;8.37;58.24;93719.81;524164;28;856;-58
2023/05/12 01:03:45;;;;;;;4.35;2.05;;;;;;;8.41;58.43;93725.00;524111;28;920;-58
2023/05/12 01:04:01;;;;;;;2.08;1.85;;;;;;;8.45;58.04;93727.41;524346;28;876;-57
2023/05/12 01:04:16;;;;;;;2.83;1.73;;;;;;;8.49;58.13;93727.88;524068;28;966;-58
2023/05/12 01:04:32;;;;;;;2.73;1.70;;;;;;;8.54;58.32;93727.75;522065;28;970;-58
2023/05/12 01:04:49;;;;;;;3.28;2.08;;;;;;;8.57;57.99;93723.94;521992;28;821;-58
2023/05/12 01:05:05;;;;;;;3.10;2.20;;;;;;;8.60;57.68;93722.16;522017;28;879;-58
2023/05/12 01:05:20;;;;;;;2.05;1.73;;;;;;;8.60;57.64;93717.38;520035;28;852;-58
2023/05/12 01:05:46;;;;;;;2.63;1.97;;;;;;;8.64;57.90;93722.56;520024;28;855;-58
2023/05/12 01:06:21;;;;;;;2.65;2.15;;;;;;;8.68;58.07;93723.75;519967;28;950;-58
2023/05/12 01:06:38;;;;;;;4.70;1.90;;;;;;;8.57;57.70;93721.19;519857;28;1914;-58
2023/05/12 01:06:57;;;;;;;2.58;1.70;;;;;;;8.50;57.71;93732.84;519952;28;894;-59
2023/05/12 01:07:18;;;;;;;2.47;1.88;;;;;;;8.44;57.71;93720.44;520871;28;848;-58
2023/05/12 01:07:35;;;;;;;2.08;1.80;;;;;;;8.45;58.02;93721.91;522054;28;854;-58
2023/05/12 01:07:50;;;;;;;3.70;1.90;;;;;;;8.46;57.85;93718.66;522036;28;903;-58
2023/05/12 01:08:06;;;;;;;4.40;1.93;;;;;;;8.52;58.02;93721.28;522114;28;848;-57
2023/05/12 01:08:22;;;;;;;3.53;1.90;;;;;;;8.55;57.69;93723.75;522016;28;1337;-58
2023/05/12 01:08:38;;;;;;;5.60;1.90;;;;;;;8.56;57.99;93722.47;522055;28;822;-58
2023/05/12 01:08:54;;;;;;;5.87;1.90;;;;;;;8.50;58.24;93718.31;522032;28;912;-58
2023/05/12 01:09:10;;;;;;;4.60;2.30;;;;;;;8.53;58.46;93718.03;519977;28;813;-58
2023/05/12 01:09:25;;;;;;;3.85;2.13;;;;;;;8.55;58.37;93721.00;520012;28;946;-58
2023/05/12 01:09:41;;;;;;;3.05;2.00;;;;;;;8.55;58.11;93720.25;517967;28;805;-58
2023/05/12 01:09:57;;;;;;;2.57;2.07;;;;;;;8.54;58.51;93714.00;517924;28;879;-58
2023/05/12 01:10:19;;;;;;;2.47;1.98;;;;;;;8.50;58.56;93721.81;518001;28;801;-57
2023/05/12 01:10:34;;;;;;;3.30;1.90;;;;;;;8.47;57.94;93725.63;519138;28;1569;-58
2023/05/12 01:10:50;;;;;;;3.85;1.95;;;;;;;8.49;58.16;93723.09;521509;28;942;-58
2023/05/12 01:11:05;;;;;;;3.00;2.17;;;;;;;8.47;58.49;93720.13;523411;28;942;-58
2023/05/12 01:11:21;;;;;;;3.03;2.15;;;;;;;8.44;58.89;93717.69;524100;28;884;-58
2023/05/12 01:11:37;;;;;;;3.55;2.22;;;;;;;8.43;59.07;93718.94;524246;28;851;-57
2023/05/12 01:11:52;;;;;;;2.73;2.30;;;;;;;8.38;59.21;93715.78;524334;28;829;-58
2023/05/12 01:12:07;;;;;;;2.33;2.13;;;;;;;8.40;59.24;93720.78;524281;28;894;-58
2023/05/12 01:12:24;;;;;;;2.25;2.05;;;;;;;8.43;59.54;93725.19;524349;28;781;-58
2023/05/12 01:12:39;;;;;;;2.55;2.00;;;;;;;8.43;59.32;93719.69;524224;28;966;-57
2023/05/12 01:12:54;;;;;;;2.83;2.17;;;;;;;8.44;59.79;93715.69;524242;28;863;-58
2023/05/12 01:13:10;;;;;;;2.53;2.07;;;;;;;8.40;59.87;93715.28;524274;28;871;-58
2023/05/12 01:13:26;;;;;;;2.80;1.90;;;;;;;8.39;60.31;93719.28;524281;28;847;-57
2023/05/12 01:13:42;;;;;;;3.22;1.90;;;;;;;8.43;60.51;93713.44;524301;28;839;-58
2023/05/12 01:13:57;;;;;;;3.57;2.20;;;;;;;8.45;60.25;93719.91;524268;28;926;-57
2023/05/12 01:14:12;;;;;;;4.45;2.20;;;;;;;8.44;60.56;93718.44;524284;28;942;-58
2023/05/12 01:14:28;;;;;;;3.73;2.10;;;;;;;8.46;60.58;93720.66;524245;28;867;-57
2023/05/12 01:14:43;;;;;;;2.53;2.10;;;;;;;8.48;60.30;93721.63;524240;28;782;-58
2023/05/12 01:14:59;;;;;;;2.30;1.95;;;;;;;8.50;60.20;93721.81;524234;28;852;-58
2023/05/12 01:15:16;;;;;;;2.00;1.90;;;;;;;8.54;60.12;93722.25;523808;28;1298;-58
2023/05/12 01:15:32;;;;;;;2.35;2.15;;;;;;;8.58;59.84;93727.41;524266;28;1725;-58
2023/05/12 01:15:47;;;;;;;2.53;2.20;;;;;;;8.61;59.90;93720.88;524095;28;852;-58
2023/05/12 01:16:03;;;;;;;2.22;1.90;;;;;;;8.63;59.60;93716.31;524147;28;931;-58
2023/05/12 01:16:22;;;;;;;3.60;2.13;;;;;;;8.66;59.72;93711.78;522036;28;808;-58
2023/05/12 01:16:50;;;;;;;3.67;2.15;;;;;;;8.67;58.51;93719.50;521973;28;915;-58
2023/05/12 01:17:12;;;;;;;2.67;1.80;;;;;;;8.62;58.03;93720.34;519952;28;830;-58
2023/05/12 01:17:32;;;;;;;2.80;2.10;;;;;;;8.63;58.37;93710.81;520022;28;969;-58
2023/05/12 01:18:00;;;;;;;2.60;2.10;;;;;;;8.64;57.92;93717.78;521799;28;821;-58
2023/05/12 01:18:18;;;;;;;2.22;1.95;;;;;;;8.63;57.80;93719.06;523478;28;911;-58
2023/05/12 01:18:35;;;;;;;2.67;2.05;;;;;;;8.65;57.96;93716.53;521955;28;1144;-57